Terminal Aerodrome Forecast
Issued by NWS Cleveland, OH

Home | Current Version | Previous Version | Graphics & Text | Print | Product List | Glossary On
Versions: 1 2 3 4 5 6 7 8 9 10 11 12 13 14 15 16 17 18 19 20
967
FTUS41 KCLE 300520
TAFYNG
TAF
KYNG 300520Z 3006/0106 14010KT P6SM SCT035 OVC100
     FM301000 13007KT 6SM -SHRA BR SCT025 OVC045
      TEMPO 3010/3014 4SM -RA BR OVC015
     FM301600 16008KT P6SM VCSH OVC020
     FM302300 22010KT P6SM -SHRA BKN020
      TEMPO 3023/0101 5SM -RA OVC015
     FM010100 26012KT P6SM BKN025=

USA.gov is the U.S. government's official web portal to all federal, state and local government web resources and services.